sensor_id;sensor_type;location;lat;lon;timestamp;pressure;altitude;pressure_sealevel;temperature;humidity
35888;BME280;21990;42.540;23.496;2023-08-31T00:00:31;93084.09;;;15.04;87.05
35888;BME280;21990;42.540;23.496;2023-08-31T00:03:01;93080.91;;;14.93;87.93
35888;BME280;21990;42.540;23.496;2023-08-31T00:05:27;93082.59;;;14.96;87.75
35888;BME280;21990;42.540;23.496;2023-08-31T00:07:56;93077.84;;;14.98;87.33
35888;BME280;21990;42.540;23.496;2023-08-31T00:10:21;93074.47;;;15.00;87.55
35888;BME280;21990;42.540;23.496;2023-08-31T00:12:47;93080.72;;;14.91;87.74
35888;BME280;21990;42.540;23.496;2023-08-31T00:15:14;93077.88;;;14.91;87.89
35888;BME280;21990;42.540;23.496;2023-08-31T00:17:40;93076.94;;;14.96;87.78
35888;BME280;21990;42.540;23.496;2023-08-31T00:20:07;93078.09;;;14.93;87.48
35888;BME280;21990;42.540;23.496;2023-08-31T00:22:37;93090.59;;;14.90;87.49
35888;BME280;21990;42.540;23.496;2023-08-31T00:25:04;93079.09;;;14.72;87.59
35888;BME280;21990;42.540;23.496;2023-08-31T00:27:31;93088.22;;;14.56;89.33
35888;BME280;21990;42.540;23.496;2023-08-31T00:29:56;93084.25;;;14.59;89.06
35888;BME280;21990;42.540;23.496;2023-08-31T00:32:23;93079.31;;;14.59;88.59
35888;BME280;21990;42.540;23.496;2023-08-31T00:34:49;93090.09;;;14.61;88.83
35888;BME280;21990;42.540;23.496;2023-08-31T00:37:15;93098.59;;;14.61;88.53
35888;BME280;21990;42.540;23.496;2023-08-31T00:39:41;93103.50;;;14.60;88.27
35888;BME280;21990;42.540;23.496;2023-08-31T00:42:07;93096.53;;;14.61;88.46
35888;BME280;21990;42.540;23.496;2023-08-31T00:44:33;93098.44;;;14.59;88.99
35888;BME280;21990;42.540;23.496;2023-08-31T00:47:01;93089.56;;;14.55;88.67
35888;BME280;21990;42.540;23.496;2023-08-31T00:49:29;93103.91;;;14.57;88.61
35888;BME280;21990;42.540;23.496;2023-08-31T00:51:55;93102.00;;;14.59;88.35
35888;BME280;21990;42.540;23.496;2023-08-31T00:54:22;93095.25;;;14.47;89.72
35888;BME280;21990;42.540;23.496;2023-08-31T00:56:57;93088.22;;;14.48;89.95
35888;BME280;21990;42.540;23.496;2023-08-31T00:59:23;93091.09;;;14.41;90.58
35888;BME280;21990;42.540;23.496;2023-08-31T01:02:11;93094.13;;;14.43;90.61
35888;BME280;21990;42.540;23.496;2023-08-31T01:07:48;93105.44;;;14.43;90.21
35888;BME280;21990;42.540;23.496;2023-08-31T01:10:28;93107.69;;;14.44;89.78
35888;BME280;21990;42.540;23.496;2023-08-31T01:13:03;93111.50;;;14.47;89.58
35888;BME280;21990;42.540;23.496;2023-08-31T01:15:31;93116.22;;;14.37;89.51
35888;BME280;21990;42.540;23.496;2023-08-31T01:18:00;93107.13;;;14.31;89.86
35888;BME280;21990;42.540;23.496;2023-08-31T01:20:42;93105.47;;;14.20;89.98
35888;BME280;21990;42.540;23.496;2023-08-31T01:23:13;93104.50;;;14.17;90.53
35888;BME280;21990;42.540;23.496;2023-08-31T01:25:39;93107.91;;;14.16;90.73
35888;BME280;21990;42.540;23.496;2023-08-31T01:28:08;93106.78;;;14.19;90.29
35888;BME280;21990;42.540;23.496;2023-08-31T01:30:35;93112.06;;;14.15;89.98
35888;BME280;21990;42.540;23.496;2023-08-31T01:33:01;93121.50;;;14.17;89.53
35888;BME280;21990;42.540;23.496;2023-08-31T01:35:31;93115.28;;;14.19;90.07
35888;BME280;21990;42.540;23.496;2023-08-31T01:38:02;93112.22;;;14.17;90.68
35888;BME280;21990;42.540;23.496;2023-08-31T01:40:52;93113.19;;;14.19;89.83
35888;BME280;21990;42.540;23.496;2023-08-31T01:43:21;93114.31;;;14.16;90.20
35888;BME280;21990;42.540;23.496;2023-08-31T01:45:50;93118.28;;;14.21;91.08
35888;BME280;21990;42.540;23.496;2023-08-31T01:48:17;93106.03;;;14.03;91.19
35888;BME280;21990;42.540;23.496;2023-08-31T01:50:42;93107.16;;;14.08;90.58
35888;BME280;21990;42.540;23.496;2023-08-31T01:53:09;93115.47;;;14.06;91.02
35888;BME280;21990;42.540;23.496;2023-08-31T01:55:35;93116.03;;;14.04;90.78
35888;BME280;21990;42.540;23.496;2023-08-31T01:58:03;93114.16;;;14.07;90.75
35888;BME280;21990;42.540;23.496;2023-08-31T02:00:29;93118.66;;;14.10;90.49
35888;BME280;21990;42.540;23.496;2023-08-31T02:02:54;93120.34;;;14.13;90.87
35888;BME280;21990;42.540;23.496;2023-08-31T02:05:20;93121.50;;;14.10;90.71
35888;BME280;21990;42.540;23.496;2023-08-31T02:07:45;93119.59;;;14.12;90.38
35888;BME280;21990;42.540;23.496;2023-08-31T02:10:11;93127.38;;;14.12;90.71
35888;BME280;21990;42.540;23.496;2023-08-31T02:12:36;93120.56;;;14.07;90.56
35888;BME280;21990;42.540;23.496;2023-08-31T02:15:05;93124.72;;;14.06;89.84
35888;BME280;21990;42.540;23.496;2023-08-31T02:17:32;93116.03;;;14.04;90.40
35888;BME280;21990;42.540;23.496;2023-08-31T02:19:57;93124.34;;;13.95;90.47
35888;BME280;21990;42.540;23.496;2023-08-31T02:22:23;93121.88;;;13.84;90.38
35888;BME280;21990;42.540;23.496;2023-08-31T02:24:49;93118.84;;;13.82;90.56
35888;BME280;21990;42.540;23.496;2023-08-31T02:27:15;93128.31;;;13.92;89.76
35888;BME280;21990;42.540;23.496;2023-08-31T02:29:40;93128.47;;;13.94;89.71
35888;BME280;21990;42.540;23.496;2023-08-31T02:32:06;93127.53;;;13.84;90.21
35888;BME280;21990;42.540;23.496;2023-08-31T02:34:32;93124.50;;;13.89;89.65
35888;BME280;21990;42.540;23.496;2023-08-31T02:36:58;93122.44;;;13.74;90.40
35888;BME280;21990;42.540;23.496;2023-08-31T02:39:23;93125.47;;;13.76;90.64
35888;BME280;21990;42.540;23.496;2023-08-31T02:41:49;93137.34;;;13.83;90.06
35888;BME280;21990;42.540;23.496;2023-08-31T02:44:15;93137.34;;;13.83;90.15
35888;BME280;21990;42.540;23.496;2023-08-31T02:46:40;93136.03;;;13.68;90.64
35888;BME280;21990;42.540;23.496;2023-08-31T02:49:06;93145.84;;;13.75;89.82
35888;BME280;21990;42.540;23.496;2023-08-31T02:51:32;93132.97;;;13.66;90.28
35888;BME280;21990;42.540;23.496;2023-08-31T02:53:57;93133.75;;;13.67;89.77
35888;BME280;21990;42.540;23.496;2023-08-31T02:56:25;93139.97;;;13.65;89.44
35888;BME280;21990;42.540;23.496;2023-08-31T02:58:51;93136.94;;;13.63;89.89
35888;BME280;21990;42.540;23.496;2023-08-31T03:01:16;93135.63;;;13.64;90.18
35888;BME280;21990;42.540;23.496;2023-08-31T03:03:42;93137.47;;;13.54;90.53
35888;BME280;21990;42.540;23.496;2023-08-31T03:06:10;93137.47;;;13.47;90.62
35888;BME280;21990;42.540;23.496;2023-08-31T03:08:37;93147.25;;;13.30;90.86
35888;BME280;21990;42.540;23.496;2023-08-31T03:11:04;93154.03;;;13.35;90.45
35888;BME280;21990;42.540;23.496;2023-08-31T03:13:33;93144.25;;;13.36;90.38
35888;BME280;21990;42.540;23.496;2023-08-31T03:15:59;93155.19;;;13.40;90.49
35888;BME280;21990;42.540;23.496;2023-08-31T03:18:25;93155.94;;;13.40;90.02
35888;BME280;21990;42.540;23.496;2023-08-31T03:20:51;93161.44;;;13.38;89.57
35888;BME280;21990;42.540;23.496;2023-08-31T03:23:16;93158.94;;;13.35;89.74
35888;BME280;21990;42.540;23.496;2023-08-31T03:25:42;93149.50;;;13.32;90.27
35888;BME280;21990;42.540;23.496;2023-08-31T03:28:08;93162.13;;;13.31;89.80
35888;BME280;21990;42.540;23.496;2023-08-31T03:30:35;93169.91;;;13.30;89.90
35888;BME280;21990;42.540;23.496;2023-08-31T03:33:00;93171.72;;;13.20;90.33
35888;BME280;21990;42.540;23.496;2023-08-31T03:35:26;93178.31;;;13.23;89.67
35888;BME280;21990;42.540;23.496;2023-08-31T03:37:55;93185.91;;;13.28;90.41
35888;BME280;21990;42.540;23.496;2023-08-31T03:40:20;93170.41;;;13.21;90.42
35888;BME280;21990;42.540;23.496;2023-08-31T03:42:46;93177.97;;;13.19;90.40
35888;BME280;21990;42.540;23.496;2023-08-31T03:45:12;93179.44;;;13.20;90.53
35888;BME280;21990;42.540;23.496;2023-08-31T03:47:38;93181.06;;;13.08;91.17
35888;BME280;21990;42.540;23.496;2023-08-31T03:50:04;93177.66;;;13.02;91.13
35888;BME280;21990;42.540;23.496;2023-08-31T03:52:30;93187.28;;;13.06;90.82
35888;BME280;21990;42.540;23.496;2023-08-31T03:54:55;93188.13;;;12.86;91.70
35888;BME280;21990;42.540;23.496;2023-08-31T03:57:21;93192.47;;;12.87;92.22
35888;BME280;21990;42.540;23.496;2023-08-31T03:59:47;93192.38;;;12.72;92.76
35888;BME280;21990;42.540;23.496;2023-08-31T04:02:13;93201.06;;;12.74;92.80
35888;BME280;21990;42.540;23.496;2023-08-31T04:04:38;93197.50;;;12.81;91.96
35888;BME280;21990;42.540;23.496;2023-08-31T04:07:05;93210.75;;;12.86;91.65
35888;BME280;21990;42.540;23.496;2023-08-31T04:09:31;93216.03;;;12.90;91.45
35888;BME280;21990;42.540;23.496;2023-08-31T04:11:57;93203.44;;;12.91;91.29
35888;BME280;21990;42.540;23.496;2023-08-31T04:14:22;93213.63;;;12.94;91.48
35888;BME280;21990;42.540;23.496;2023-08-31T04:16:48;93227.63;;;12.99;91.68
35888;BME280;21990;42.540;23.496;2023-08-31T04:19:18;93227.25;;;13.03;91.60
35888;BME280;21990;42.540;23.496;2023-08-31T04:21:43;93242.88;;;13.04;91.98
35888;BME280;21990;42.540;23.496;2023-08-31T04:24:09;93238.34;;;13.01;92.22
35888;BME280;21990;42.540;23.496;2023-08-31T04:26:35;93235.53;;;13.01;92.83
35888;BME280;21990;42.540;23.496;2023-08-31T04:29:02;93249.84;;;12.95;93.59
35888;BME280;21990;42.540;23.496;2023-08-31T04:31:31;93247.00;;;12.95;94.76
35888;BME280;21990;42.540;23.496;2023-08-31T04:33:57;93251.38;;;13.04;94.42
35888;BME280;21990;42.540;23.496;2023-08-31T04:36:24;93248.72;;;12.98;95.37
35888;BME280;21990;42.540;23.496;2023-08-31T04:38:51;93249.22;;;12.89;95.93
35888;BME280;21990;42.540;23.496;2023-08-31T04:41:17;93246.03;;;12.93;96.32
35888;BME280;21990;42.540;23.496;2023-08-31T04:43:43;93235.94;;;13.05;96.38
35888;BME280;21990;42.540;23.496;2023-08-31T04:46:08;93237.59;;;13.00;96.02
35888;BME280;21990;42.540;23.496;2023-08-31T04:48:35;93243.94;;;13.14;95.58
35888;BME280;21990;42.540;23.496;2023-08-31T04:51:01;93238.50;;;13.23;95.81
35888;BME280;21990;42.540;23.496;2023-08-31T04:53:29;93239.53;;;13.41;96.13
35888;BME280;21990;42.540;23.496;2023-08-31T04:55:58;93229.78;;;13.50;96.49
35888;BME280;21990;42.540;23.496;2023-08-31T04:58:23;93224.50;;;13.54;96.87
35888;BME280;21990;42.540;23.496;2023-08-31T05:00:51;93235.69;;;13.74;96.11
35888;BME280;21990;42.540;23.496;2023-08-31T05:03:17;93225.16;;;13.90;95.96
35888;BME280;21990;42.540;23.496;2023-08-31T05:05:43;93233.88;;;14.07;95.59
35888;BME280;21990;42.540;23.496;2023-08-31T05:08:09;93227.66;;;14.24;96.06
35888;BME280;21990;42.540;23.496;2023-08-31T05:10:35;93227.13;;;14.41;94.00
35888;BME280;21990;42.540;23.496;2023-08-31T05:13:03;93228.66;;;14.42;94.33
35888;BME280;21990;42.540;23.496;2023-08-31T05:15:29;93239.06;;;14.54;93.54
35888;BME280;21990;42.540;23.496;2023-08-31T05:17:55;93238.09;;;14.59;94.20
35888;BME280;21990;42.540;23.496;2023-08-31T05:20:21;93242.25;;;14.73;94.69
35888;BME280;21990;42.540;23.496;2023-08-31T05:22:49;93235.06;;;14.80;94.32
35888;BME280;21990;42.540;23.496;2023-08-31T05:25:14;93227.28;;;14.96;93.10
35888;BME280;21990;42.540;23.496;2023-08-31T05:27:40;93228.56;;;15.10;93.61
35888;BME280;21990;42.540;23.496;2023-08-31T05:30:06;93233.22;;;15.53;94.47
35888;BME280;21990;42.540;23.496;2023-08-31T05:32:32;93223.53;;;15.96;93.07
35888;BME280;21990;42.540;23.496;2023-08-31T05:34:57;93229.03;;;16.58;89.75
35888;BME280;21990;42.540;23.496;2023-08-31T05:37:25;93223.03;;;17.14;85.04
35888;BME280;21990;42.540;23.496;2023-08-31T05:39:51;93218.63;;;17.54;83.74
35888;BME280;21990;42.540;23.496;2023-08-31T05:42:17;93226.41;;;17.71;80.15
35888;BME280;21990;42.540;23.496;2023-08-31T05:44:43;93222.25;;;18.16;84.17
35888;BME280;21990;42.540;23.496;2023-08-31T05:47:09;93225.16;;;18.89;80.94
35888;BME280;21990;42.540;23.496;2023-08-31T05:49:37;93221.44;;;19.06;79.42
35888;BME280;21990;42.540;23.496;2023-08-31T05:52:02;93218.69;;;19.54;77.33
35888;BME280;21990;42.540;23.496;2023-08-31T05:54:28;93226.66;;;19.94;73.48
35888;BME280;21990;42.540;23.496;2023-08-31T05:56:53;93231.41;;;20.49;74.47
35888;BME280;21990;42.540;23.496;2023-08-31T05:59:19;93219.25;;;21.10;70.83
35888;BME280;21990;42.540;23.496;2023-08-31T06:01:45;93227.06;;;21.50;70.03
35888;BME280;21990;42.540;23.496;2023-08-31T06:04:10;93223.84;;;21.55;67.23
35888;BME280;21990;42.540;23.496;2023-08-31T06:06:36;93216.81;;;22.22;66.20
35888;BME280;21990;42.540;23.496;2023-08-31T06:09:02;93218.16;;;22.54;66.11
35888;BME280;21990;42.540;23.496;2023-08-31T06:11:27;93225.25;;;22.86;67.30
35888;BME280;21990;42.540;23.496;2023-08-31T06:13:53;93225.75;;;23.40;62.19
35888;BME280;21990;42.540;23.496;2023-08-31T06:16:19;93220.63;;;23.27;60.39
35888;BME280;21990;42.540;23.496;2023-08-31T06:18:44;93219.66;;;23.34;62.76
35888;BME280;21990;42.540;23.496;2023-08-31T06:21:10;93220.38;;;23.58;62.58
35888;BME280;21990;42.540;23.496;2023-08-31T06:23:36;93224.78;;;24.07;60.43
35888;BME280;21990;42.540;23.496;2023-08-31T06:26:01;93224.81;;;24.33;60.98
35888;BME280;21990;42.540;23.496;2023-08-31T06:28:27;93232.09;;;24.84;57.35
35888;BME280;21990;42.540;23.496;2023-08-31T06:30:52;93234.13;;;24.95;57.66
35888;BME280;21990;42.540;23.496;2023-08-31T06:33:18;93225.16;;;24.89;53.61
35888;BME280;21990;42.540;23.496;2023-08-31T06:35:48;93234.72;;;25.06;57.46
35888;BME280;21990;42.540;23.496;2023-08-31T06:38:17;93243.34;;;25.06;55.90
35888;BME280;21990;42.540;23.496;2023-08-31T06:40:44;93234.63;;;25.31;54.44
35888;BME280;21990;42.540;23.496;2023-08-31T06:43:09;93237.75;;;25.48;55.28
35888;BME280;21990;42.540;23.496;2023-08-31T06:45:35;93248.59;;;25.75;55.72
35888;BME280;21990;42.540;23.496;2023-08-31T06:48:01;93243.22;;;25.83;53.20
35888;BME280;21990;42.540;23.496;2023-08-31T06:50:28;93247.88;;;26.18;53.64
35888;BME280;21990;42.540;23.496;2023-08-31T06:52:53;93241.47;;;26.19;51.43
35888;BME280;21990;42.540;23.496;2023-08-31T06:55:19;93244.78;;;26.27;51.39
35888;BME280;21990;42.540;23.496;2023-08-31T06:57:44;93237.53;;;26.56;52.78
35888;BME280;21990;42.540;23.496;2023-08-31T07:00:11;93239.75;;;27.16;51.25
35888;BME280;21990;42.540;23.496;2023-08-31T07:02:40;93239.56;;;27.59;50.25
35888;BME280;21990;42.540;23.496;2023-08-31T07:05:10;93243.50;;;28.30;48.62
35888;BME280;21990;42.540;23.496;2023-08-31T07:07:36;93238.59;;;28.17;47.02
35888;BME280;21990;42.540;23.496;2023-08-31T07:10:05;93235.13;;;28.89;46.50
35888;BME280;21990;42.540;23.496;2023-08-31T07:12:31;93239.06;;;28.62;47.09
35888;BME280;21990;42.540;23.496;2023-08-31T07:14:57;93233.03;;;28.92;45.73
35888;BME280;21990;42.540;23.496;2023-08-31T07:17:22;93243.66;;;28.85;44.65
35888;BME280;21990;42.540;23.496;2023-08-31T07:19:48;93240.59;;;28.81;42.29
35888;BME280;21990;42.540;23.496;2023-08-31T07:22:13;93235.59;;;28.66;44.65
35888;BME280;21990;42.540;23.496;2023-08-31T07:24:39;93237.19;;;28.87;43.21
35888;BME280;21990;42.540;23.496;2023-08-31T07:27:04;93240.53;;;28.46;41.96
35888;BME280;21990;42.540;23.496;2023-08-31T07:29:30;93233.69;;;28.72;44.08
35888;BME280;21990;42.540;23.496;2023-08-31T07:31:57;93237.44;;;28.75;44.93
35888;BME280;21990;42.540;23.496;2023-08-31T07:34:23;93243.09;;;28.38;43.79
35888;BME280;21990;42.540;23.496;2023-08-31T07:36:48;93242.69;;;28.45;45.23
35888;BME280;21990;42.540;23.496;2023-08-31T07:39:14;93248.81;;;28.53;44.21
35888;BME280;21990;42.540;23.496;2023-08-31T07:41:39;93240.63;;;28.48;43.90
35888;BME280;21990;42.540;23.496;2023-08-31T07:44:05;93249.56;;;28.36;45.83
35888;BME280;21990;42.540;23.496;2023-08-31T07:46:31;93251.19;;;28.41;44.38
35888;BME280;21990;42.540;23.496;2023-08-31T07:48:57;93242.78;;;28.65;46.58
35888;BME280;21990;42.540;23.496;2023-08-31T07:51:25;93246.03;;;28.55;44.38
35888;BME280;21990;42.540;23.496;2023-08-31T07:53:51;93245.91;;;28.36;44.27
35888;BME280;21990;42.540;23.496;2023-08-31T07:56:16;93250.44;;;28.07;45.20
35888;BME280;21990;42.540;23.496;2023-08-31T07:58:42;93247.28;;;28.17;44.68
35888;BME280;21990;42.540;23.496;2023-08-31T08:01:07;93242.38;;;28.21;45.28
35888;BME280;21990;42.540;23.496;2023-08-31T08:03:33;93259.31;;;28.27;45.57
35888;BME280;21990;42.540;23.496;2023-08-31T08:05:59;93256.81;;;28.37;43.70
35888;BME280;21990;42.540;23.496;2023-08-31T08:08:25;93257.31;;;28.32;44.11
35888;BME280;21990;42.540;23.496;2023-08-31T08:10:54;93254.06;;;28.23;44.56
35888;BME280;21990;42.540;23.496;2023-08-31T08:13:20;93257.19;;;28.12;43.76
35888;BME280;21990;42.540;23.496;2023-08-31T08:15:46;93254.09;;;28.08;43.72
35888;BME280;21990;42.540;23.496;2023-08-31T08:18:12;93266.06;;;28.16;45.56
35888;BME280;21990;42.540;23.496;2023-08-31T08:20:38;93257.38;;;28.16;44.43
35888;BME280;21990;42.540;23.496;2023-08-31T08:23:05;93261.09;;;28.18;44.70
35888;BME280;21990;42.540;23.496;2023-08-31T08:25:31;93265.22;;;27.98;43.71
35888;BME280;21990;42.540;23.496;2023-08-31T08:27:56;93254.66;;;28.04;45.39
35888;BME280;21990;42.540;23.496;2023-08-31T08:30:22;93257.19;;;28.12;45.02
35888;BME280;21990;42.540;23.496;2023-08-31T08:32:48;93252.72;;;28.09;44.05
35888;BME280;21990;42.540;23.496;2023-08-31T08:35:13;93247.19;;;28.15;44.76
35888;BME280;21990;42.540;23.496;2023-08-31T08:37:39;93253.50;;;28.27;44.98
35888;BME280;21990;42.540;23.496;2023-08-31T08:40:05;93254.81;;;28.24;44.17
35888;BME280;21990;42.540;23.496;2023-08-31T08:42:32;93252.16;;;28.12;44.04
35888;BME280;21990;42.540;23.496;2023-08-31T08:45:05;93259.16;;;27.92;43.63
35888;BME280;21990;42.540;23.496;2023-08-31T08:47:32;93252.91;;;27.97;43.36
35888;BME280;21990;42.540;23.496;2023-08-31T08:49:59;93259.06;;;28.05;42.99
35888;BME280;21990;42.540;23.496;2023-08-31T08:52:26;93254.56;;;28.18;43.81
35888;BME280;21990;42.540;23.496;2023-08-31T08:54:52;93258.19;;;28.18;44.10
35888;BME280;21990;42.540;23.496;2023-08-31T08:57:19;93255.97;;;28.17;42.91
35888;BME280;21990;42.540;23.496;2023-08-31T08:59:47;93254.56;;;28.02;41.88
35888;BME280;21990;42.540;23.496;2023-08-31T09:02:13;93251.66;;;28.02;42.51
35888;BME280;21990;42.540;23.496;2023-08-31T09:04:38;93258.31;;;28.05;43.55
35888;BME280;21990;42.540;23.496;2023-08-31T09:07:04;93251.00;;;28.04;43.25
35888;BME280;21990;42.540;23.496;2023-08-31T09:09:30;93248.34;;;27.92;41.86
35888;BME280;21990;42.540;23.496;2023-08-31T09:12:06;93256.84;;;27.88;41.75
35888;BME280;21990;42.540;23.496;2023-08-31T09:14:32;93250.94;;;27.86;43.06
35888;BME280;21990;42.540;23.496;2023-08-31T09:16:57;93257.50;;;27.71;43.53
35888;BME280;21990;42.540;23.496;2023-08-31T09:19:24;93257.31;;;27.67;40.70
35888;BME280;21990;42.540;23.496;2023-08-31T09:21:55;93256.91;;;27.43;41.50
35888;BME280;21990;42.540;23.496;2023-08-31T09:24:20;93257.38;;;27.22;41.21
35888;BME280;21990;42.540;23.496;2023-08-31T09:26:52;93267.34;;;27.03;41.44
35888;BME280;21990;42.540;23.496;2023-08-31T09:29:18;93254.44;;;26.90;42.97
35888;BME280;21990;42.540;23.496;2023-08-31T09:31:44;93259.19;;;26.84;42.27
35888;BME280;21990;42.540;23.496;2023-08-31T09:34:12;93259.72;;;26.80;41.81
35888;BME280;21990;42.540;23.496;2023-08-31T09:36:38;93266.16;;;26.65;41.14
35888;BME280;21990;42.540;23.496;2023-08-31T09:39:05;93260.31;;;26.63;46.11
35888;BME280;21990;42.540;23.496;2023-08-31T09:41:32;93250.03;;;26.60;44.91
35888;BME280;21990;42.540;23.496;2023-08-31T09:44:26;93246.66;;;26.79;45.17
35888;BME280;21990;42.540;23.496;2023-08-31T09:46:52;93239.91;;;27.04;44.78
35888;BME280;21990;42.540;23.496;2023-08-31T09:49:20;93233.03;;;27.27;43.05
35888;BME280;21990;42.540;23.496;2023-08-31T09:51:47;93235.47;;;27.48;40.98
35888;BME280;21990;42.540;23.496;2023-08-31T09:54:18;93238.28;;;27.46;37.53
35888;BME280;21990;42.540;23.496;2023-08-31T09:56:45;93248.19;;;27.57;41.05
35888;BME280;21990;42.540;23.496;2023-08-31T09:59:13;93237.41;;;27.75;40.94
35888;BME280;21990;42.540;23.496;2023-08-31T10:01:44;93238.25;;;27.93;37.72
35888;BME280;21990;42.540;23.496;2023-08-31T10:04:10;93239.25;;;28.00;38.03
35888;BME280;21990;42.540;23.496;2023-08-31T10:06:41;93243.63;;;28.16;39.02
35888;BME280;21990;42.540;23.496;2023-08-31T10:09:07;93241.44;;;28.33;37.89
35888;BME280;21990;42.540;23.496;2023-08-31T10:11:35;93241.75;;;28.41;36.76
35888;BME280;21990;42.540;23.496;2023-08-31T10:14:03;93227.44;;;28.45;39.68
35888;BME280;21990;42.540;23.496;2023-08-31T10:16:30;93228.88;;;28.61;39.69
35888;BME280;21990;42.540;23.496;2023-08-31T10:18:56;93228.66;;;28.73;37.09
35888;BME280;21990;42.540;23.496;2023-08-31T10:21:22;93229.69;;;28.64;35.64
35888;BME280;21990;42.540;23.496;2023-08-31T10:23:49;93225.22;;;28.43;37.85
35888;BME280;21990;42.540;23.496;2023-08-31T10:26:28;93227.19;;;28.39;36.70
35888;BME280;21990;42.540;23.496;2023-08-31T10:28:55;93226.03;;;28.46;38.68
35888;BME280;21990;42.540;23.496;2023-08-31T10:31:21;93214.44;;;28.46;35.89
35888;BME280;21990;42.540;23.496;2023-08-31T10:34:03;93221.66;;;28.45;35.65
35888;BME280;21990;42.540;23.496;2023-08-31T10:36:37;93223.72;;;28.42;35.91
35888;BME280;21990;42.540;23.496;2023-08-31T10:39:17;93226.53;;;28.40;36.47
35888;BME280;21990;42.540;23.496;2023-08-31T10:41:55;93242.16;;;28.33;35.97
35888;BME280;21990;42.540;23.496;2023-08-31T10:46:48;93240.16;;;28.20;38.29
35888;BME280;21990;42.540;23.496;2023-08-31T10:49:16;93233.53;;;28.17;35.08
35888;BME280;21990;42.540;23.496;2023-08-31T10:51:56;93246.56;;;28.34;37.39
35888;BME280;21990;42.540;23.496;2023-08-31T10:54:33;93239.97;;;28.49;35.67
35888;BME280;21990;42.540;23.496;2023-08-31T10:57:04;93248.91;;;28.55;38.20
35888;BME280;21990;42.540;23.496;2023-08-31T10:59:53;93248.41;;;28.61;37.20
35888;BME280;21990;42.540;23.496;2023-08-31T11:02:38;93245.91;;;28.53;37.34
35888;BME280;21990;42.540;23.496;2023-08-31T11:05:17;93248.59;;;28.47;40.23
35888;BME280;21990;42.540;23.496;2023-08-31T11:07:47;93243.53;;;28.48;37.89
35888;BME280;21990;42.540;23.496;2023-08-31T11:10:18;93256.38;;;28.60;39.69
35888;BME280;21990;42.540;23.496;2023-08-31T11:12:52;93251.03;;;28.70;37.92
35888;BME280;21990;42.540;23.496;2023-08-31T11:15:19;93241.78;;;28.58;36.74
35888;BME280;21990;42.540;23.496;2023-08-31T11:17:46;93236.00;;;28.58;36.82
35888;BME280;21990;42.540;23.496;2023-08-31T11:20:19;93245.28;;;28.55;37.85
35888;BME280;21990;42.540;23.496;2023-08-31T11:22:47;93239.97;;;28.49;37.45
35888;BME280;21990;42.540;23.496;2023-08-31T11:25:16;93239.59;;;28.41;35.61
35888;BME280;21990;42.540;23.496;2023-08-31T11:27:53;93239.88;;;28.47;36.67
35888;BME280;21990;42.540;23.496;2023-08-31T11:30:19;93227.44;;;28.45;33.89
35888;BME280;21990;42.540;23.496;2023-08-31T11:32:50;93230.44;;;28.47;39.37
35888;BME280;21990;42.540;23.496;2023-08-31T11:35:16;93229.63;;;28.62;38.44
35888;BME280;21990;42.540;23.496;2023-08-31T11:37:49;93218.44;;;28.54;36.78
35888;BME280;21990;42.540;23.496;2023-08-31T11:40:15;93235.41;;;28.62;36.67
35888;BME280;21990;42.540;23.496;2023-08-31T11:42:41;93229.69;;;28.64;36.56
35888;BME280;21990;42.540;23.496;2023-08-31T11:45:07;93232.41;;;28.60;36.78
35888;BME280;21990;42.540;23.496;2023-08-31T11:47:33;93229.34;;;28.38;35.09
35888;BME280;21990;42.540;23.496;2023-08-31T11:50:00;93235.41;;;28.44;36.35
35888;BME280;21990;42.540;23.496;2023-08-31T11:52:30;93227.38;;;28.43;36.68
35888;BME280;21990;42.540;23.496;2023-08-31T11:54:57;93232.25;;;28.38;36.86
35888;BME280;21990;42.540;23.496;2023-08-31T11:57:26;93226.25;;;28.16;35.98
35888;BME280;21990;42.540;23.496;2023-08-31T11:59:53;93229.72;;;27.97;36.50
35888;BME280;21990;42.540;23.496;2023-08-31T12:02:20;93232.91;;;27.88;37.90
35888;BME280;21990;42.540;23.496;2023-08-31T12:04:46;93229.09;;;27.83;37.19
35888;BME280;21990;42.540;23.496;2023-08-31T12:07:16;93230.03;;;27.88;37.67
35888;BME280;21990;42.540;23.496;2023-08-31T12:09:42;93228.63;;;27.89;36.89
35888;BME280;21990;42.540;23.496;2023-08-31T12:12:13;93225.75;;;27.73;36.53
35888;BME280;21990;42.540;23.496;2023-08-31T12:14:39;93226.91;;;27.66;37.35
35888;BME280;21990;42.540;23.496;2023-08-31T12:17:08;93234.72;;;27.48;38.56
35888;BME280;21990;42.540;23.496;2023-08-31T12:19:37;93231.53;;;27.26;37.01
35888;BME280;21990;42.540;23.496;2023-08-31T12:22:04;93240.66;;;27.20;38.87
35888;BME280;21990;42.540;23.496;2023-08-31T12:24:37;93222.47;;;27.18;37.34
35888;BME280;21990;42.540;23.496;2023-08-31T12:27:04;93238.44;;;27.19;39.58
35888;BME280;21990;42.540;23.496;2023-08-31T12:29:30;93237.56;;;27.01;38.05
35888;BME280;21990;42.540;23.496;2023-08-31T12:31:56;93231.16;;;27.18;39.02
35888;BME280;21990;42.540;23.496;2023-08-31T12:34:21;93227.13;;;27.09;37.90
35888;BME280;21990;42.540;23.496;2023-08-31T12:36:47;93234.41;;;27.10;38.91
35888;BME280;21990;42.540;23.496;2023-08-31T12:39:13;93225.19;;;27.14;40.35
35888;BME280;21990;42.540;23.496;2023-08-31T12:41:41;93220.91;;;27.15;41.82
35888;BME280;21990;42.540;23.496;2023-08-31T12:44:07;93238.50;;;27.05;41.75
35888;BME280;21990;42.540;23.496;2023-08-31T12:46:33;93225.19;;;27.14;38.77
35888;BME280;21990;42.540;23.496;2023-08-31T12:49:00;93228.00;;;27.12;40.39
35888;BME280;21990;42.540;23.496;2023-08-31T12:51:27;93228.72;;;27.12;40.20
35888;BME280;21990;42.540;23.496;2023-08-31T12:53:53;93216.31;;;27.10;39.55
35888;BME280;21990;42.540;23.496;2023-08-31T12:56:19;93220.59;;;27.09;40.04